sensor_id;sensor_type;location;lat;lon;timestamp;temperature;humidity
52323;DHT22;38263;52.920;6.238;2022-08-01T00:00:37;18.50;99.90
52323;DHT22;38263;52.920;6.238;2022-08-01T00:03:03;18.60;99.90
52323;DHT22;38263;52.920;6.238;2022-08-01T00:05:29;18.70;99.90
52323;DHT22;38263;52.920;6.238;2022-08-01T00:07:55;18.60;99.90
52323;DHT22;38263;52.920;6.238;2022-08-01T00:10:20;18.50;99.90
52323;DHT22;38263;52.920;6.238;2022-08-01T00:12:46;18.30;99.90
52323;DHT22;38263;52.920;6.238;2022-08-01T00:15:13;18.60;99.90
52323;DHT22;38263;52.920;6.238;2022-08-01T00:17:40;18.60;99.90
52323;DHT22;38263;52.920;6.238;2022-08-01T00:20:07;18.60;99.90
52323;DHT22;38263;52.920;6.238;2022-08-01T00:22:34;18.70;99.90
52323;DHT22;38263;52.920;6.238;2022-08-01T00:25:00;18.60;99.90
52323;DHT22;38263;52.920;6.238;2022-08-01T00:27:26;18.50;99.90
52323;DHT22;38263;52.920;6.238;2022-08-01T00:29:51;18.70;99.90
52323;DHT22;38263;52.920;6.238;2022-08-01T00:32:17;18.50;99.90
52323;DHT22;38263;52.920;6.238;2022-08-01T00:34:43;18.50;99.90
52323;DHT22;38263;52.920;6.238;2022-08-01T00:37:08;18.20;99.90
52323;DHT22;38263;52.920;6.238;2022-08-01T00:39:34;19.00;99.90
52323;DHT22;38263;52.920;6.238;2022-08-01T00:42:05;18.60;99.90
52323;DHT22;38263;52.920;6.238;2022-08-01T00:44:31;18.50;99.90
52323;DHT22;38263;52.920;6.238;2022-08-01T00:46:56;18.40;99.90
52323;DHT22;38263;52.920;6.238;2022-08-01T00:49:22;18.40;99.90
52323;DHT22;38263;52.920;6.238;2022-08-01T00:51:48;18.40;99.90
52323;DHT22;38263;52.920;6.238;2022-08-01T00:54:14;18.50;99.90
52323;DHT22;38263;52.920;6.238;2022-08-01T00:56:39;18.60;99.90
52323;DHT22;38263;52.920;6.238;2022-08-01T00:59:06;19.80;99.90
52323;DHT22;38263;52.920;6.238;2022-08-01T01:01:32;18.20;99.90
52323;DHT22;38263;52.920;6.238;2022-08-01T01:03:58;18.50;99.90
52323;DHT22;38263;52.920;6.238;2022-08-01T01:14:28;18.50;99.90
52323;DHT22;38263;52.920;6.238;2022-08-01T01:16:57;18.50;99.90
52323;DHT22;38263;52.920;6.238;2022-08-01T01:19:24;18.40;99.90
52323;DHT22;38263;52.920;6.238;2022-08-01T01:27:57;18.40;99.90
52323;DHT22;38263;52.920;6.238;2022-08-01T01:30:24;18.30;99.90
52323;DHT22;38263;52.920;6.238;2022-08-01T01:32:52;18.00;99.90
52323;DHT22;38263;52.920;6.238;2022-08-01T01:35:22;18.70;99.90
52323;DHT22;38263;52.920;6.238;2022-08-01T01:37:58;18.30;99.90
52323;DHT22;38263;52.920;6.238;2022-08-01T01:40:25;18.40;99.90
52323;DHT22;38263;52.920;6.238;2022-08-01T01:42:53;18.30;99.90
52323;DHT22;38263;52.920;6.238;2022-08-01T01:45:21;18.20;99.90
52323;DHT22;38263;52.920;6.238;2022-08-01T01:47:49;19.20;99.90
52323;DHT22;38263;52.920;6.238;2022-08-01T01:50:16;18.40;99.90
52323;DHT22;38263;52.920;6.238;2022-08-01T01:52:44;18.20;99.90
52323;DHT22;38263;52.920;6.238;2022-08-01T01:55:12;18.30;99.90
52323;DHT22;38263;52.920;6.238;2022-08-01T01:57:40;18.40;99.90
52323;DHT22;38263;52.920;6.238;2022-08-01T02:00:09;18.30;99.90
52323;DHT22;38263;52.920;6.238;2022-08-01T02:02:36;18.10;99.90
52323;DHT22;38263;52.920;6.238;2022-08-01T02:05:05;18.10;99.90
52323;DHT22;38263;52.920;6.238;2022-08-01T02:07:32;18.40;99.90
52323;DHT22;38263;52.920;6.238;2022-08-01T02:09:58;18.40;99.90
52323;DHT22;38263;52.920;6.238;2022-08-01T02:12:25;18.20;99.90
52323;DHT22;38263;52.920;6.238;2022-08-01T02:14:53;18.40;99.90
52323;DHT22;38263;52.920;6.238;2022-08-01T02:17:20;18.10;99.90
52323;DHT22;38263;52.920;6.238;2022-08-01T02:19:46;18.20;99.90
52323;DHT22;38263;52.920;6.238;2022-08-01T02:22:29;18.30;99.90
52323;DHT22;38263;52.920;6.238;2022-08-01T02:25:02;18.20;99.90
52323;DHT22;38263;52.920;6.238;2022-08-01T02:27:34;18.20;99.90
52323;DHT22;38263;52.920;6.238;2022-08-01T02:30:05;18.20;99.90
52323;DHT22;38263;52.920;6.238;2022-08-01T02:32:47;18.10;99.90
52323;DHT22;38263;52.920;6.238;2022-08-01T02:35:21;18.30;99.90
52323;DHT22;38263;52.920;6.238;2022-08-01T02:37:48;18.10;99.90
52323;DHT22;38263;52.920;6.238;2022-08-01T02:40:16;18.20;99.90
52323;DHT22;38263;52.920;6.238;2022-08-01T02:42:46;20.20;99.90
52323;DHT22;38263;52.920;6.238;2022-08-01T02:45:13;18.10;99.90
52323;DHT22;38263;52.920;6.238;2022-08-01T02:47:40;18.00;99.90
52323;DHT22;38263;52.920;6.238;2022-08-01T02:50:07;17.70;99.90
52323;DHT22;38263;52.920;6.238;2022-08-01T02:52:34;18.10;99.90
52323;DHT22;38263;52.920;6.238;2022-08-01T02:55:01;18.00;99.90
52323;DHT22;38263;52.920;6.238;2022-08-01T02:57:27;17.80;99.90
52323;DHT22;38263;52.920;6.238;2022-08-01T02:59:56;17.80;99.90
52323;DHT22;38263;52.920;6.238;2022-08-01T03:02:23;17.70;99.90
52323;DHT22;38263;52.920;6.238;2022-08-01T03:04:50;18.00;99.90
52323;DHT22;38263;52.920;6.238;2022-08-01T03:07:17;17.90;99.90
52323;DHT22;38263;52.920;6.238;2022-08-01T03:09:45;17.90;99.90
52323;DHT22;38263;52.920;6.238;2022-08-01T03:12:24;17.70;99.90
52323;DHT22;38263;52.920;6.238;2022-08-01T03:14:51;17.70;99.90
52323;DHT22;38263;52.920;6.238;2022-08-01T03:17:21;17.70;99.90
52323;DHT22;38263;52.920;6.238;2022-08-01T03:19:48;17.70;99.90
52323;DHT22;38263;52.920;6.238;2022-08-01T03:22:15;17.60;99.90
52323;DHT22;38263;52.920;6.238;2022-08-01T03:24:43;17.80;99.90
52323;DHT22;38263;52.920;6.238;2022-08-01T03:27:10;17.80;99.90
52323;DHT22;38263;52.920;6.238;2022-08-01T03:29:37;17.70;99.90
52323;DHT22;38263;52.920;6.238;2022-08-01T03:32:05;17.70;99.90
52323;DHT22;38263;52.920;6.238;2022-08-01T03:34:32;17.60;99.90
52323;DHT22;38263;52.920;6.238;2022-08-01T03:37:11;17.80;99.90
52323;DHT22;38263;52.920;6.238;2022-08-01T03:39:44;17.50;99.90
52323;DHT22;38263;52.920;6.238;2022-08-01T03:42:16;18.50;99.90
52323;DHT22;38263;52.920;6.238;2022-08-01T03:44:47;17.60;99.90
52323;DHT22;38263;52.920;6.238;2022-08-01T03:47:16;17.70;99.90
52323;DHT22;38263;52.920;6.238;2022-08-01T03:49:44;18.80;99.90
52323;DHT22;38263;52.920;6.238;2022-08-01T03:52:10;17.30;99.90
52323;DHT22;38263;52.920;6.238;2022-08-01T03:54:40;17.70;99.90
52323;DHT22;38263;52.920;6.238;2022-08-01T03:57:08;17.70;99.90
52323;DHT22;38263;52.920;6.238;2022-08-01T03:59:35;17.50;99.90
52323;DHT22;38263;52.920;6.238;2022-08-01T04:02:02;17.70;99.90
52323;DHT22;38263;52.920;6.238;2022-08-01T04:04:28;17.70;99.90
52323;DHT22;38263;52.920;6.238;2022-08-01T04:06:54;17.60;99.90
52323;DHT22;38263;52.920;6.238;2022-08-01T04:09:21;17.60;99.90
52323;DHT22;38263;52.920;6.238;2022-08-01T04:11:47;17.60;99.90
52323;DHT22;38263;52.920;6.238;2022-08-01T04:14:13;19.40;99.90
52323;DHT22;38263;52.920;6.238;2022-08-01T04:16:39;17.60;99.90
52323;DHT22;38263;52.920;6.238;2022-08-01T04:19:04;17.50;99.90
52323;DHT22;38263;52.920;6.238;2022-08-01T04:21:33;17.50;99.90
52323;DHT22;38263;52.920;6.238;2022-08-01T04:24:04;17.60;99.90
52323;DHT22;38263;52.920;6.238;2022-08-01T04:26:32;17.50;99.90
52323;DHT22;38263;52.920;6.238;2022-08-01T04:29:00;17.50;99.90
52323;DHT22;38263;52.920;6.238;2022-08-01T04:31:28;17.50;99.90
52323;DHT22;38263;52.920;6.238;2022-08-01T04:33:56;17.50;99.90
52323;DHT22;38263;52.920;6.238;2022-08-01T04:36:23;17.60;99.90
52323;DHT22;38263;52.920;6.238;2022-08-01T04:38:54;17.50;99.90
52323;DHT22;38263;52.920;6.238;2022-08-01T04:41:22;17.60;99.90
52323;DHT22;38263;52.920;6.238;2022-08-01T04:43:49;17.30;99.90
52323;DHT22;38263;52.920;6.238;2022-08-01T04:46:16;17.40;99.90
52323;DHT22;38263;52.920;6.238;2022-08-01T04:48:43;17.50;99.90
52323;DHT22;38263;52.920;6.238;2022-08-01T04:51:14;17.50;99.90
52323;DHT22;38263;52.920;6.238;2022-08-01T04:53:47;17.10;99.90
52323;DHT22;38263;52.920;6.238;2022-08-01T04:56:13;17.30;99.90
52323;DHT22;38263;52.920;6.238;2022-08-01T04:58:40;17.60;99.90
52323;DHT22;38263;52.920;6.238;2022-08-01T05:01:06;17.40;99.90
52323;DHT22;38263;52.920;6.238;2022-08-01T05:03:32;17.20;99.90
52323;DHT22;38263;52.920;6.238;2022-08-01T05:05:57;17.50;99.90
52323;DHT22;38263;52.920;6.238;2022-08-01T05:08:23;17.30;99.90
52323;DHT22;38263;52.920;6.238;2022-08-01T05:10:48;17.20;99.90
52323;DHT22;38263;52.920;6.238;2022-08-01T05:13:14;17.40;99.90
52323;DHT22;38263;52.920;6.238;2022-08-01T05:15:40;17.30;99.90
52323;DHT22;38263;52.920;6.238;2022-08-01T05:18:06;17.20;99.90
52323;DHT22;38263;52.920;6.238;2022-08-01T05:22:58;17.30;99.90
52323;DHT22;38263;52.920;6.238;2022-08-01T05:25:23;17.50;99.90
52323;DHT22;38263;52.920;6.238;2022-08-01T05:27:49;17.20;99.90
52323;DHT22;38263;52.920;6.238;2022-08-01T05:30:15;17.30;99.90
52323;DHT22;38263;52.920;6.238;2022-08-01T05:32:41;17.30;99.90
52323;DHT22;38263;52.920;6.238;2022-08-01T05:35:07;17.20;99.90
52323;DHT22;38263;52.920;6.238;2022-08-01T05:37:33;17.20;99.90
52323;DHT22;38263;52.920;6.238;2022-08-01T05:42:25;17.10;99.90
52323;DHT22;38263;52.920;6.238;2022-08-01T05:44:51;17.30;99.90
52323;DHT22;38263;52.920;6.238;2022-08-01T05:47:17;17.30;99.90
52323;DHT22;38263;52.920;6.238;2022-08-01T05:49:44;19.40;99.90
52323;DHT22;38263;52.920;6.238;2022-08-01T05:52:10;17.20;99.90
52323;DHT22;38263;52.920;6.238;2022-08-01T05:54:36;17.20;99.90
52323;DHT22;38263;52.920;6.238;2022-08-01T05:57:01;17.10;99.90
52323;DHT22;38263;52.920;6.238;2022-08-01T05:59:28;17.20;99.90
52323;DHT22;38263;52.920;6.238;2022-08-01T06:01:53;16.90;99.90
52323;DHT22;38263;52.920;6.238;2022-08-01T06:04:19;17.20;99.90
52323;DHT22;38263;52.920;6.238;2022-08-01T06:06:44;17.20;99.90
52323;DHT22;38263;52.920;6.238;2022-08-01T06:09:10;17.20;99.90
52323;DHT22;38263;52.920;6.238;2022-08-01T06:11:36;17.30;99.90
52323;DHT22;38263;52.920;6.238;2022-08-01T06:14:01;17.00;99.90
52323;DHT22;38263;52.920;6.238;2022-08-01T06:16:27;17.30;99.90
52323;DHT22;38263;52.920;6.238;2022-08-01T06:18:53;17.00;99.90
52323;DHT22;38263;52.920;6.238;2022-08-01T06:21:18;17.10;99.90
52323;DHT22;38263;52.920;6.238;2022-08-01T06:23:44;17.20;99.90
52323;DHT22;38263;52.920;6.238;2022-08-01T06:26:10;17.00;99.90
52323;DHT22;38263;52.920;6.238;2022-08-01T06:28:36;17.20;99.90
52323;DHT22;38263;52.920;6.238;2022-08-01T06:31:01;17.00;99.90
52323;DHT22;38263;52.920;6.238;2022-08-01T06:33:27;17.00;99.90
52323;DHT22;38263;52.920;6.238;2022-08-01T06:35:53;16.80;99.90
52323;DHT22;38263;52.920;6.238;2022-08-01T06:38:19;17.00;99.90
52323;DHT22;38263;52.920;6.238;2022-08-01T06:40:45;16.90;99.90
52323;DHT22;38263;52.920;6.238;2022-08-01T06:43:10;17.20;99.90
52323;DHT22;38263;52.920;6.238;2022-08-01T06:45:40;17.00;99.90
52323;DHT22;38263;52.920;6.238;2022-08-01T06:48:05;17.10;99.90
52323;DHT22;38263;52.920;6.238;2022-08-01T06:50:31;17.00;99.90
52323;DHT22;38263;52.920;6.238;2022-08-01T06:55:23;17.20;99.90
52323;DHT22;38263;52.920;6.238;2022-08-01T06:57:50;17.10;99.90
52323;DHT22;38263;52.920;6.238;2022-08-01T07:00:17;17.10;99.90
52323;DHT22;38263;52.920;6.238;2022-08-01T07:02:46;17.10;99.90
52323;DHT22;38263;52.920;6.238;2022-08-01T07:05:12;17.30;99.90
52323;DHT22;38263;52.920;6.238;2022-08-01T07:07:38;17.20;99.90
52323;DHT22;38263;52.920;6.238;2022-08-01T07:10:04;17.10;99.90
52323;DHT22;38263;52.920;6.238;2022-08-01T07:12:30;17.10;99.90
52323;DHT22;38263;52.920;6.238;2022-08-01T07:14:55;17.10;99.90
52323;DHT22;38263;52.920;6.238;2022-08-01T07:17:21;17.20;99.90
52323;DHT22;38263;52.920;6.238;2022-08-01T07:19:47;17.20;99.90
52323;DHT22;38263;52.920;6.238;2022-08-01T07:22:13;17.40;99.90
52323;DHT22;38263;52.920;6.238;2022-08-01T07:24:40;17.40;99.90
52323;DHT22;38263;52.920;6.238;2022-08-01T07:27:07;17.50;99.90
52323;DHT22;38263;52.920;6.238;2022-08-01T07:29:32;17.60;99.90
52323;DHT22;38263;52.920;6.238;2022-08-01T07:31:58;19.70;99.90
52323;DHT22;38263;52.920;6.238;2022-08-01T07:34:25;17.60;99.90
52323;DHT22;38263;52.920;6.238;2022-08-01T07:36:51;17.90;99.90
52323;DHT22;38263;52.920;6.238;2022-08-01T07:39:17;18.10;99.90
52323;DHT22;38263;52.920;6.238;2022-08-01T07:41:42;18.20;99.90
52323;DHT22;38263;52.920;6.238;2022-08-01T07:44:08;18.30;99.90
52323;DHT22;38263;52.920;6.238;2022-08-01T07:46:33;18.40;99.90
52323;DHT22;38263;52.920;6.238;2022-08-01T07:48:59;18.20;99.90
52323;DHT22;38263;52.920;6.238;2022-08-01T07:51:25;18.10;99.90
52323;DHT22;38263;52.920;6.238;2022-08-01T07:53:50;18.40;99.90
52323;DHT22;38263;52.920;6.238;2022-08-01T07:56:16;18.40;99.90
52323;DHT22;38263;52.920;6.238;2022-08-01T07:58:41;18.60;99.90
52323;DHT22;38263;52.920;6.238;2022-08-01T08:01:07;18.50;99.90
52323;DHT22;38263;52.920;6.238;2022-08-01T08:03:33;18.70;99.90
52323;DHT22;38263;52.920;6.238;2022-08-01T08:05:58;18.80;99.90
52323;DHT22;38263;52.920;6.238;2022-08-01T08:08:24;18.90;99.90
52323;DHT22;38263;52.920;6.238;2022-08-01T08:10:49;18.70;99.90
52323;DHT22;38263;52.920;6.238;2022-08-01T08:13:15;18.80;99.90
52323;DHT22;38263;52.920;6.238;2022-08-01T08:15:40;18.70;99.90
52323;DHT22;38263;52.920;6.238;2022-08-01T08:18:06;19.20;99.90
52323;DHT22;38263;52.920;6.238;2022-08-01T08:20:32;19.00;99.90
52323;DHT22;38263;52.920;6.238;2022-08-01T08:22:58;18.80;99.90
52323;DHT22;38263;52.920;6.238;2022-08-01T08:25:25;19.00;99.90
52323;DHT22;38263;52.920;6.238;2022-08-01T08:27:51;18.90;99.90
52323;DHT22;38263;52.920;6.238;2022-08-01T08:30:17;18.80;99.90
52323;DHT22;38263;52.920;6.238;2022-08-01T08:32:43;19.10;99.90
52323;DHT22;38263;52.920;6.238;2022-08-01T08:35:09;18.90;99.90
52323;DHT22;38263;52.920;6.238;2022-08-01T08:37:36;19.10;99.90
52323;DHT22;38263;52.920;6.238;2022-08-01T08:40:03;19.20;99.90
52323;DHT22;38263;52.920;6.238;2022-08-01T08:42:29;19.10;99.90
52323;DHT22;38263;52.920;6.238;2022-08-01T08:44:55;19.20;99.90
52323;DHT22;38263;52.920;6.238;2022-08-01T08:47:22;19.10;99.90
52323;DHT22;38263;52.920;6.238;2022-08-01T08:49:51;19.30;99.90
52323;DHT22;38263;52.920;6.238;2022-08-01T08:52:19;19.30;99.90
52323;DHT22;38263;52.920;6.238;2022-08-01T08:54:46;19.60;99.90
52323;DHT22;38263;52.920;6.238;2022-08-01T08:57:13;19.10;99.90
52323;DHT22;38263;52.920;6.238;2022-08-01T08:59:39;19.80;99.90
52323;DHT22;38263;52.920;6.238;2022-08-01T09:02:07;19.50;99.90
52323;DHT22;38263;52.920;6.238;2022-08-01T09:04:32;19.30;99.90
52323;DHT22;38263;52.920;6.238;2022-08-01T09:06:58;19.60;99.90
52323;DHT22;38263;52.920;6.238;2022-08-01T09:09:24;19.30;99.90
52323;DHT22;38263;52.920;6.238;2022-08-01T09:11:50;19.20;99.90
52323;DHT22;38263;52.920;6.238;2022-08-01T09:14:17;19.60;99.90
52323;DHT22;38263;52.920;6.238;2022-08-01T09:17:01;20.10;99.90
52323;DHT22;38263;52.920;6.238;2022-08-01T09:19:47;19.80;99.90
52323;DHT22;38263;52.920;6.238;2022-08-01T09:22:15;19.60;99.90
52323;DHT22;38263;52.920;6.238;2022-08-01T09:27:24;19.90;99.90
52323;DHT22;38263;52.920;6.238;2022-08-01T09:29:54;20.00;99.90
52323;DHT22;38263;52.920;6.238;2022-08-01T09:32:20;20.30;99.90
52323;DHT22;38263;52.920;6.238;2022-08-01T09:34:46;20.30;99.90
52323;DHT22;38263;52.920;6.238;2022-08-01T09:37:12;20.30;99.90
52323;DHT22;38263;52.920;6.238;2022-08-01T09:39:42;20.40;99.90
52323;DHT22;38263;52.920;6.238;2022-08-01T09:42:24;20.50;99.90
52323;DHT22;38263;52.920;6.238;2022-08-01T09:44:50;20.40;99.90
52323;DHT22;38263;52.920;6.238;2022-08-01T09:47:16;20.50;99.90
52323;DHT22;38263;52.920;6.238;2022-08-01T09:49:44;20.70;99.90
52323;DHT22;38263;52.920;6.238;2022-08-01T09:52:18;20.50;99.90
52323;DHT22;38263;52.920;6.238;2022-08-01T09:54:56;20.60;99.90
52323;DHT22;38263;52.920;6.238;2022-08-01T09:57:22;20.50;99.90
52323;DHT22;38263;52.920;6.238;2022-08-01T09:59:50;20.50;99.90
52323;DHT22;38263;52.920;6.238;2022-08-01T10:04:58;20.60;99.90
52323;DHT22;38263;52.920;6.238;2022-08-01T10:07:24;20.50;99.90
52323;DHT22;38263;52.920;6.238;2022-08-01T10:09:50;20.70;99.90
52323;DHT22;38263;52.920;6.238;2022-08-01T10:12:18;20.80;99.90
52323;DHT22;38263;52.920;6.238;2022-08-01T10:14:47;20.50;99.90
52323;DHT22;38263;52.920;6.238;2022-08-01T10:17:16;20.60;99.90
52323;DHT22;38263;52.920;6.238;2022-08-01T10:19:42;20.50;99.90
52323;DHT22;38263;52.920;6.238;2022-08-01T10:22:11;20.70;99.90
52323;DHT22;38263;52.920;6.238;2022-08-01T10:24:38;20.60;99.90
52323;DHT22;38263;52.920;6.238;2022-08-01T10:27:06;20.80;99.90
52323;DHT22;38263;52.920;6.238;2022-08-01T10:29:42;20.90;99.90
52323;DHT22;38263;52.920;6.238;2022-08-01T10:32:09;20.60;99.90
52323;DHT22;38263;52.920;6.238;2022-08-01T10:34:35;20.60;99.90
52323;DHT22;38263;52.920;6.238;2022-08-01T10:37:02;20.30;99.90
52323;DHT22;38263;52.920;6.238;2022-08-01T10:39:28;20.40;99.90
52323;DHT22;38263;52.920;6.238;2022-08-01T10:41:56;20.50;99.90
52323;DHT22;38263;52.920;6.238;2022-08-01T10:44:23;20.60;99.90
52323;DHT22;38263;52.920;6.238;2022-08-01T10:46:52;20.70;99.90
52323;DHT22;38263;52.920;6.238;2022-08-01T10:49:21;20.70;99.90
52323;DHT22;38263;52.920;6.238;2022-08-01T10:51:48;20.70;99.90
52323;DHT22;38263;52.920;6.238;2022-08-01T10:54:14;20.90;99.90
52323;DHT22;38263;52.920;6.238;2022-08-01T10:56:44;20.80;99.90
52323;DHT22;38263;52.920;6.238;2022-08-01T10:59:15;22.70;99.90
52323;DHT22;38263;52.920;6.238;2022-08-01T11:01:58;21.10;99.90
52323;DHT22;38263;52.920;6.238;2022-08-01T11:07:16;20.80;99.90
52323;DHT22;38263;52.920;6.238;2022-08-01T11:09:45;20.80;99.90
52323;DHT22;38263;52.920;6.238;2022-08-01T11:12:13;20.90;99.90
52323;DHT22;38263;52.920;6.238;2022-08-01T11:17:39;21.20;99.90
52323;DHT22;38263;52.920;6.238;2022-08-01T11:25:24;21.10;99.90
52323;DHT22;38263;52.920;6.238;2022-08-01T11:44:18;21.10;99.90
52323;DHT22;38263;52.920;6.238;2022-08-01T11:52:18;21.10;99.90
52323;DHT22;38263;52.920;6.238;2022-08-01T11:54:56;23.30;99.90
52323;DHT22;38263;52.920;6.238;2022-08-01T11:57:24;21.10;99.90
52323;DHT22;38263;52.920;6.238;2022-08-01T11:59:52;21.10;99.90
52323;DHT22;38263;52.920;6.238;2022-08-01T12:04:46;21.00;99.90
52323;DHT22;38263;52.920;6.238;2022-08-01T12:07:17;20.90;99.90
52323;DHT22;38263;52.920;6.238;2022-08-01T12:09:42;21.10;99.90
52323;DHT22;38263;52.920;6.238;2022-08-01T12:12:09;22.30;99.90
52323;DHT22;38263;52.920;6.238;2022-08-01T12:14:34;21.10;99.90
52323;DHT22;38263;52.920;6.238;2022-08-01T12:17:00;20.90;99.90
52323;DHT22;38263;52.920;6.238;2022-08-01T12:19:26;20.80;99.90
52323;DHT22;38263;52.920;6.238;2022-08-01T12:22:09;21.30;99.90
52323;DHT22;38263;52.920;6.238;2022-08-01T12:24:36;21.00;99.90
52323;DHT22;38263;52.920;6.238;2022-08-01T12:27:03;21.10;99.90
52323;DHT22;38263;52.920;6.238;2022-08-01T12:31:58;21.20;99.90
52323;DHT22;38263;52.920;6.238;2022-08-01T12:34:25;21.10;99.90
52323;DHT22;38263;52.920;6.238;2022-08-01T12:36:51;21.10;99.90
52323;DHT22;38263;52.920;6.238;2022-08-01T12:39:17;21.00;99.90
52323;DHT22;38263;52.920;6.238;2022-08-01T12:41:43;21.00;99.90
52323;DHT22;38263;52.920;6.238;2022-08-01T12:44:15;21.10;99.90
52323;DHT22;38263;52.920;6.238;2022-08-01T12:46:42;21.30;99.90
52323;DHT22;38263;52.920;6.238;2022-08-01T12:49:07;21.10;99.90
52323;DHT22;38263;52.920;6.238;2022-08-01T12:51:33;21.40;99.90
52323;DHT22;38263;52.920;6.238;2022-08-01T12:53:59;21.20;99.90
52323;DHT22;38263;52.920;6.238;2022-08-01T12:56:32;21.20;99.90
52323;DHT22;38263;52.920;6.238;2022-08-01T12:58:58;21.20;99.90
52323;DHT22;38263;52.920;6.238;2022-08-01T13:01:28;21.20;99.90
52323;DHT22;38263;52.920;6.238;2022-08-01T13:04:03;21.00;99.90
52323;DHT22;38263;52.920;6.238;2022-08-01T13:06:30;21.20;99.90
52323;DHT22;38263;52.920;6.238;2022-08-01T13:09:08;21.20;99.90
52323;DHT22;38263;52.920;6.238;2022-08-01T13:11:34;21.30;99.90
52323;DHT22;38263;52.920;6.238;2022-08-01T13:14:00;21.20;99.90
52323;DHT22;38263;52.920;6.238;2022-08-01T13:16:26;21.30;99.90
52323;DHT22;38263;52.920;6.238;2022-08-01T13:18:54;21.50;99.90
52323;DHT22;38263;52.920;6.238;2022-08-01T13:24:08;21.50;99.90
52323;DHT22;38263;52.920;6.238;2022-08-01T13:29:08;21.20;99.90
52323;DHT22;38263;52.920;6.238;2022-08-01T13:31:35;21.10;99.90
52323;DHT22;38263;52.920;6.238;2022-08-01T13:34:01;21.20;99.90
52323;DHT22;38263;52.920;6.238;2022-08-01T13:36:27;21.00;99.90
52323;DHT22;38263;52.920;6.238;2022-08-01T13:38:54;20.90;99.90
52323;DHT22;38263;52.920;6.238;2022-08-01T13:41:39;20.80;99.90
52323;DHT22;38263;52.920;6.238;2022-08-01T13:44:04;20.90;99.90
52323;DHT22;38263;52.920;6.238;2022-08-01T13:46:31;20.80;99.90
52323;DHT22;38263;52.920;6.238;2022-08-01T13:48:56;20.90;99.90
52323;DHT22;38263;52.920;6.238;2022-08-01T13:51:22;21.00;99.90
52323;DHT22;38263;52.920;6.238;2022-08-01T13:53:47;20.80;99.90
52323;DHT22;38263;52.920;6.238;2022-08-01T13:56:13;20.60;99.90
52323;DHT22;38263;52.920;6.238;2022-08-01T13:58:38;22.00;99.90
52323;DHT22;38263;52.920;6.238;2022-08-01T14:01:04;21.00;99.90
52323;DHT22;38263;52.920;6.238;2022-08-01T14:03:30;20.80;99.90
52323;DHT22;38263;52.920;6.238;2022-08-01T14:05:56;21.10;99.90
52323;DHT22;38263;52.920;6.238;2022-08-01T14:08:22;20.90;99.90
52323;DHT22;38263;52.920;6.238;2022-08-01T14:10:47;21.10;99.90
52323;DHT22;38263;52.920;6.238;2022-08-01T14:13:13;21.00;99.90
52323;DHT22;38263;52.920;6.238;2022-08-01T14:15:39;21.00;99.90
52323;DHT22;38263;52.920;6.238;2022-08-01T14:18:06;21.20;99.90
52323;DHT22;38263;52.920;6.238;2022-08-01T14:20:35;21.20;99.90
52323;DHT22;38263;52.920;6.238;2022-08-01T14:23:01;21.20;99.90
52323;DHT22;38263;52.920;6.238;2022-08-01T14:25:26;21.10;99.90
52323;DHT22;38263;52.920;6.238;2022-08-01T14:27:52;21.30;99.90
52323;DHT22;38263;52.920;6.238;2022-08-01T14:30:17;21.10;99.90
52323;DHT22;38263;52.920;6.238;2022-08-01T14:32:43;21.20;99.90
52323;DHT22;38263;52.920;6.238;2022-08-01T14:35:08;21.00;99.90
52323;DHT22;38263;52.920;6.238;2022-08-01T14:37:34;22.60;99.90
52323;DHT22;38263;52.920;6.238;2022-08-01T14:40:00;21.30;99.90
52323;DHT22;38263;52.920;6.238;2022-08-01T14:42:30;21.70;99.90
52323;DHT22;38263;52.920;6.238;2022-08-01T14:44:55;21.00;99.90
52323;DHT22;38263;52.920;6.238;2022-08-01T14:47:21;21.20;99.90
52323;DHT22;38263;52.920;6.238;2022-08-01T14:49:47;21.40;99.90
52323;DHT22;38263;52.920;6.238;2022-08-01T14:52:12;21.10;99.90
52323;DHT22;38263;52.920;6.238;2022-08-01T14:54:38;21.50;99.90
52323;DHT22;38263;52.920;6.238;2022-08-01T14:57:03;21.40;99.90
52323;DHT22;38263;52.920;6.238;2022-08-01T14:59:29;21.40;99.90
52323;DHT22;38263;52.920;6.238;2022-08-01T15:01:54;21.40;99.90
52323;DHT22;38263;52.920;6.238;2022-08-01T15:04:20;21.30;99.90
52323;DHT22;38263;52.920;6.238;2022-08-01T15:06:46;21.30;99.90
52323;DHT22;38263;52.920;6.238;2022-08-01T15:09:11;21.50;99.90
52323;DHT22;38263;52.920;6.238;2022-08-01T15:11:37;21.20;99.90
52323;DHT22;38263;52.920;6.238;2022-08-01T15:14:03;21.30;99.90
52323;DHT22;38263;52.920;6.238;2022-08-01T15:16:47;21.50;99.90
52323;DHT22;38263;52.920;6.238;2022-08-01T15:19:13;21.40;99.90
52323;DHT22;38263;52.920;6.238;2022-08-01T15:21:39;21.40;99.90
52323;DHT22;38263;52.920;6.238;2022-08-01T15:24:04;21.50;99.90
52323;DHT22;38263;52.920;6.238;2022-08-01T15:26:30;21.50;99.90
52323;DHT22;38263;52.920;6.238;2022-08-01T15:28:56;21.10;99.90
52323;DHT22;38263;52.920;6.238;2022-08-01T15:31:22;21.60;99.90
52323;DHT22;38263;52.920;6.238;2022-08-01T15:33:47;21.50;99.90
52323;DHT22;38263;52.920;6.238;2022-08-01T15:36:13;21.60;99.90
52323;DHT22;38263;52.920;6.238;2022-08-01T15:38:38;21.40;99.90
52323;DHT22;38263;52.920;6.238;2022-08-01T15:41:04;21.50;99.90
52323;DHT22;38263;52.920;6.238;2022-08-01T15:43:30;21.40;99.90
52323;DHT22;38263;52.920;6.238;2022-08-01T15:45:56;21.50;99.90
52323;DHT22;38263;52.920;6.238;2022-08-01T15:48:22;21.40;99.90
52323;DHT22;38263;52.920;6.238;2022-08-01T15:50:47;21.50;99.90
52323;DHT22;38263;52.920;6.238;2022-08-01T15:53:13;21.60;99.90
52323;DHT22;38263;52.920;6.238;2022-08-01T15:55:39;21.30;99.90
52323;DHT22;38263;52.920;6.238;2022-08-01T15:58:05;21.50;99.90
52323;DHT22;38263;52.920;6.238;2022-08-01T16:00:30;21.20;99.90
52323;DHT22;38263;52.920;6.238;2022-08-01T16:02:56;23.20;99.90
52323;DHT22;38263;52.920;6.238;2022-08-01T16:05:22;22.80;99.90
52323;DHT22;38263;52.920;6.238;2022-08-01T16:07:48;21.60;99.90
52323;DHT22;38263;52.920;6.238;2022-08-01T16:10:14;21.60;99.90
52323;DHT22;38263;52.920;6.238;2022-08-01T16:12:39;21.60;99.90
52323;DHT22;38263;52.920;6.238;2022-08-01T16:15:05;21.50;99.90
52323;DHT22;38263;52.920;6.238;2022-08-01T16:17:31;21.70;99.90
52323;DHT22;38263;52.920;6.238;2022-08-01T16:19:57;21.80;99.90
52323;DHT22;38263;52.920;6.238;2022-08-01T16:22:22;21.60;99.90
52323;DHT22;38263;52.920;6.238;2022-08-01T16:24:48;21.80;99.90
52323;DHT22;38263;52.920;6.238;2022-08-01T16:27:13;21.80;99.90
52323;DHT22;38263;52.920;6.238;2022-08-01T16:29:39;21.60;99.90
52323;DHT22;38263;52.920;6.238;2022-08-01T16:32:05;21.80;99.90
52323;DHT22;38263;52.920;6.238;2022-08-01T16:34:31;21.70;99.90
52323;DHT22;38263;52.920;6.238;2022-08-01T16:36:57;21.90;99.90
52323;DHT22;38263;52.920;6.238;2022-08-01T16:39:23;21.60;99.90